Time;durP1;ratioP1;P1;durP2;ratioP2;P2;SDS_P1;SDS_P2;PMS_P1;PMS_P2;Temp;Humidity;BMP_temperature;BMP_pressure;BME280_temperature;BME280_humidity;BME280_pressure;Samples;Min_cycle;Max_cycle;Signal;HPM_P1;HPM_P2
2020/12/08 00:00:46;;;;;;;;;;;;;;;-10.11;85.75;102599.05;1811882;79;20447;-37
2020/12/08 00:03:14;;;;;;;;;;;;;;;-10.14;85.79;102596.20;1811592;79;20125;-36
2020/12/08 00:05:42;;;;;;;;;;;;;;;-10.16;85.86;102597.68;1811726;79;20141;-36
2020/12/08 00:08:10;;;;;;;;;;;;;;;-10.18;85.91;102567.16;1811946;79;20408;-36
2020/12/08 00:10:38;;;;;;;;;;;;;;;-10.20;85.93;102585.50;1797173;80;20136;-38
2020/12/08 00:13:06;;;;;;;;;;;;;;;-10.20;85.92;102581.33;1812068;79;20287;-37
2020/12/08 00:15:34;;;;;;;;;;;;;;;-10.23;85.90;102583.55;1811682;79;20126;-37
2020/12/08 00:18:02;;;;;;;;;;;;;;;-10.26;85.91;102580.74;1811636;79;20170;-35
2020/12/08 00:20:29;;;;;;;;;;;;;;;-10.28;85.96;102584.77;1811957;79;20181;-36
2020/12/08 00:22:57;;;;;;;;;;;;;;;-10.31;86.00;102587.02;1812026;79;20145;-36
2020/12/08 00:25:27;;;;;;;;;;;;;;;-10.36;86.07;102584.76;1811988;79;20145;-36
2020/12/08 00:27:55;;;;;;;;;;;;;;;-10.38;86.16;102585.01;1811809;79;20201;-36
2020/12/08 00:30:23;;;;;;;;;;;;;;;-10.41;86.22;102578.36;1811843;79;20229;-37
2020/12/08 00:32:50;;;;;;;;;;;;;;;-10.42;86.26;102582.90;1811774;79;20161;-36
2020/12/08 00:35:19;;;;;;;;;;;;;;;-10.46;86.30;102584.27;1811682;79;20407;-35
2020/12/08 00:37:48;;;;;;;;;;;;;;;-10.49;86.35;102587.38;1811096;79;20225;-35
2020/12/08 00:40:15;;;;;;;;;;;;;;;-10.53;86.35;102580.23;1811831;79;20185;-35
2020/12/08 00:42:43;;;;;;;;;;;;;;;-10.58;86.36;102566.61;1811801;79;20228;-43
2020/12/08 00:45:13;;;;;;;;;;;;;;;-10.62;86.42;102575.53;1811956;79;20134;-35
2020/12/08 00:47:42;;;;;;;;;;;;;;;-10.65;86.47;102576.52;1811640;79;20232;-36
2020/12/08 00:50:09;;;;;;;;;;;;;;;-10.67;86.53;102575.46;1811702;79;20145;-35
2020/12/08 00:52:37;;;;;;;;;;;;;;;-10.68;86.57;102562.64;1811957;78;20244;-36
2020/12/08 00:55:09;;;;;;;;;;;;;;;-10.70;86.64;102567.95;1792905;80;20338;-35
2020/12/08 00:57:38;;;;;;;;;;;;;;;-10.71;86.65;102566.16;1818944;79;20237;-36
2020/12/08 01:00:08;;;;;;;;;;;;;;;-10.74;86.71;102569.64;1818748;79;20150;-35
2020/12/08 01:02:37;;;;;;;;;;;;;;;-10.75;86.81;102576.72;1827758;78;20242;-36
2020/12/08 01:05:11;;;;;;;;;;;;;;;-10.74;86.87;102574.70;1829898;78;20476;-34
2020/12/08 01:07:35;;;;;;;;;;;;;;;-10.74;86.92;102578.51;1829875;78;20254;-35
2020/12/08 01:10:03;;;;;;;;;;;;;;;-10.75;86.97;102578.87;1829742;78;20385;-37
2020/12/08 01:12:32;;;;;;;;;;;;;;;-10.76;87.01;102565.69;1829607;78;20123;-37
2020/12/08 01:15:00;;;;;;;;;;;;;;;-10.76;87.07;102569.89;1829795;78;20178;-36
2020/12/08 01:17:32;;;;;;;;;;;;;;;-10.76;87.09;102568.63;1829923;78;20382;-37
2020/12/08 01:20:01;;;;;;;;;;;;;;;-10.77;87.10;102565.56;1829915;78;20171;-36
2020/12/08 01:22:30;;;;;;;;;;;;;;;-10.77;87.16;102568.09;1829691;78;20229;-34
2020/12/08 01:24:59;;;;;;;;;;;;;;;-10.78;87.17;102558.70;1829919;78;20424;-36
2020/12/08 01:27:33;;;;;;;;;;;;;;;-10.79;87.18;102559.07;1838397;78;20393;-40
2020/12/08 01:30:04;;;;;;;;;;;;;;;-10.79;87.23;102560.34;1829659;78;20142;-36
2020/12/08 01:32:32;;;;;;;;;;;;;;;-10.78;87.23;102564.66;1829820;78;20385;-35
2020/12/08 01:35:00;;;;;;;;;;;;;;;-10.79;87.24;102563.23;1829724;78;20397;-35
2020/12/08 01:37:29;;;;;;;;;;;;;;;-10.81;87.26;102558.02;1829857;78;20468;-37
2020/12/08 01:39:59;;;;;;;;;;;;;;;-10.82;87.27;102553.69;1829662;78;20135;-36
2020/12/08 01:42:30;;;;;;;;;;;;;;;-10.82;87.29;102566.36;1829849;78;20170;-36
2020/12/08 01:44:58;;;;;;;;;;;;;;;-10.83;87.28;102556.09;1829859;78;20143;-36
2020/12/08 01:47:26;;;;;;;;;;;;;;;-10.85;87.30;102570.24;1826958;77;20257;-37
2020/12/08 01:49:54;;;;;;;;;;;;;;;-10.84;87.32;102572.03;1811585;78;20263;-37
2020/12/08 01:52:22;;;;;;;;;;;;;;;-10.84;87.35;102580.53;1829848;78;20127;-36
2020/12/08 01:54:53;;;;;;;;;;;;;;;-10.86;87.35;102585.81;1829655;78;20174;-36
2020/12/08 01:57:22;;;;;;;;;;;;;;;-10.86;87.35;102594.67;1829625;78;20473;-37
2020/12/08 01:59:52;;;;;;;;;;;;;;;-10.86;87.37;102591.24;1829605;78;20167;-37
2020/12/08 02:02:22;;;;;;;;;;;;;;;-10.87;87.38;102586.91;1829749;78;20179;-36
2020/12/08 02:04:50;;;;;;;;;;;;;;;-10.87;87.40;102604.27;1829955;78;20143;-36
2020/12/08 02:07:18;;;;;;;;;;;;;;;-10.87;87.39;102601.74;1829561;78;20221;-36
2020/12/08 02:09:46;;;;;;;;;;;;;;;-10.86;87.38;102597.58;1829584;78;20182;-36
2020/12/08 02:12:15;;;;;;;;;;;;;;;-10.89;87.34;102596.52;1829662;78;20209;-35
2020/12/08 02:14:45;;;;;;;;;;;;;;;-10.91;87.32;102595.50;1829669;78;20143;-36
2020/12/08 02:17:14;;;;;;;;;;;;;;;-10.95;87.31;102592.12;1829813;78;20139;-35
2020/12/08 02:19:45;;;;;;;;;;;;;;;-10.94;87.35;102591.75;1838865;78;20389;-37
2020/12/08 02:22:15;;;;;;;;;;;;;;;-10.94;87.36;102596.81;1829837;78;20183;-34
2020/12/08 02:26:49;;;;;;;;;;;;;;;-10.90;87.40;102593.86;1919452;74;20189;-36
2020/12/08 02:29:18;;;;;;;;;;;;;;;-10.95;87.38;102588.31;1884964;75;20180;-36
2020/12/08 02:31:46;;;;;;;;;;;;;;;-10.95;87.35;102593.75;1903464;75;20187;-36
2020/12/08 02:34:16;;;;;;;;;;;;;;;-10.96;87.34;102584.39;1902544;75;20172;-36
2020/12/08 02:36:44;;;;;;;;;;;;;;;-10.98;87.33;102585.87;1903090;75;20163;-35
2020/12/08 02:39:12;;;;;;;;;;;;;;;-11.03;87.31;102593.02;1903177;75;20270;-36
2020/12/08 02:41:40;;;;;;;;;;;;;;;-11.07;87.32;102580.78;1903403;75;20162;-36
2020/12/08 02:44:08;;;;;;;;;;;;;;;-11.10;87.34;102580.86;1902914;75;20128;-37
2020/12/08 02:46:54;;;;;;;;;;;;;;;-11.13;87.35;102581.44;1903074;75;20274;-35
2020/12/08 02:49:22;;;;;;;;;;;;;;;-11.17;87.36;102583.16;1903288;75;20140;-35
2020/12/08 02:51:56;;;;;;;;;;;;;;;-11.19;87.41;102585.89;1903432;75;20374;-36
2020/12/08 02:54:26;;;;;;;;;;;;;;;-11.20;87.45;102580.67;1903103;75;20164;-35
2020/12/08 02:56:55;;;;;;;;;;;;;;;-11.21;87.47;102573.81;1903104;75;20144;-45
2020/12/08 02:59:25;;;;;;;;;;;;;;;-11.22;87.49;102583.05;1901735;75;20140;-36
2020/12/08 03:01:54;;;;;;;;;;;;;;;-11.25;87.50;102577.69;1903173;75;20132;-37
2020/12/08 03:04:24;;;;;;;;;;;;;;;-11.26;87.51;102572.10;1902597;75;20306;-35
2020/12/08 03:06:52;;;;;;;;;;;;;;;-11.27;87.53;102569.41;1903392;75;20378;-37
2020/12/08 03:09:20;;;;;;;;;;;;;;;-11.27;87.53;102567.77;1890905;75;20253;-35
2020/12/08 03:11:48;;;;;;;;;;;;;;;-11.25;87.56;102571.36;1867935;77;20165;-37
2020/12/08 03:14:18;;;;;;;;;;;;;;;-11.22;87.49;102570.78;1867851;77;20146;-36
2020/12/08 03:16:47;;;;;;;;;;;;;;;-11.20;87.45;102570.17;1868143;77;20476;-35
2020/12/08 03:19:15;;;;;;;;;;;;;;;-11.19;87.35;102564.75;1868002;75;20189;-36
2020/12/08 03:21:43;;;;;;;;;;;;;;;-11.24;87.26;102570.62;1868055;77;20456;-37
2020/12/08 03:24:13;;;;;;;;;;;;;;;-11.27;87.23;102565.24;1866354;77;20150;-36
2020/12/08 03:26:42;;;;;;;;;;;;;;;-11.30;87.21;102556.09;1867872;77;20122;-38
2020/12/08 03:29:10;;;;;;;;;;;;;;;-11.30;87.17;102564.95;1867738;77;20162;-37
2020/12/08 03:31:38;;;;;;;;;;;;;;;-11.31;87.14;102574.55;1867920;77;20399;-37
2020/12/08 03:34:06;;;;;;;;;;;;;;;-11.34;87.10;102571.70;1867823;77;20206;-37
2020/12/08 03:36:34;;;;;;;;;;;;;;;-11.37;87.06;102573.94;1867373;77;20455;-39
2020/12/08 03:39:03;;;;;;;;;;;;;;;-11.42;87.03;102569.66;1867277;77;20204;-36
2020/12/08 03:41:32;;;;;;;;;;;;;;;-11.45;87.03;102567.20;1867015;76;20150;-37
2020/12/08 03:44:02;;;;;;;;;;;;;;;-11.48;87.04;102572.84;1866591;77;20127;-35
2020/12/08 03:46:30;;;;;;;;;;;;;;;-11.49;87.05;102576.14;1867332;77;20384;-36
2020/12/08 03:49:00;;;;;;;;;;;;;;;-11.50;87.06;102571.81;1867235;77;20139;-34
2020/12/08 03:51:28;;;;;;;;;;;;;;;-11.50;87.05;102576.88;1867227;77;20153;-35
2020/12/08 03:53:57;;;;;;;;;;;;;;;-11.52;87.02;102573.66;1867286;77;20135;-35
2020/12/08 03:56:27;;;;;;;;;;;;;;;-11.54;86.99;102563.73;1867335;77;20139;-37
2020/12/08 03:58:57;;;;;;;;;;;;;;;-11.56;86.98;102552.23;1867187;77;20162;-35
2020/12/08 04:01:24;;;;;;;;;;;;;;;-11.58;86.97;102562.55;1868643;77;20573;-36
2020/12/08 04:03:53;;;;;;;;;;;;;;;-11.58;86.92;102566.72;1870772;77;20134;-38
2020/12/08 04:06:22;;;;;;;;;;;;;;;-11.58;86.89;102566.72;1870672;75;20574;-36
2020/12/08 04:08:50;;;;;;;;;;;;;;;-11.57;86.85;102571.04;1871149;77;20284;-36
2020/12/08 04:11:20;;;;;;;;;;;;;;;-11.58;86.79;102560.02;1866871;77;20141;-36
2020/12/08 04:13:49;;;;;;;;;;;;;;;-11.57;86.71;102569.77;1866977;77;20415;-35
2020/12/08 04:16:17;;;;;;;;;;;;;;;-11.56;86.60;102572.47;1867048;77;20157;-39
2020/12/08 04:18:46;;;;;;;;;;;;;;;-11.57;86.50;102569.77;1867175;77;20163;-35
2020/12/08 04:21:22;;;;;;;;;;;;;;;-11.58;86.40;102570.51;1866841;77;20188;-37
2020/12/08 04:23:51;;;;;;;;;;;;;;;-11.59;86.28;102568.34;1869767;77;20503;-36
2020/12/08 04:26:19;;;;;;;;;;;;;;;-11.60;86.19;102577.94;1867391;77;20206;-36
2020/12/08 04:28:47;;;;;;;;;;;;;;;-11.60;86.08;102575.41;1867071;77;20219;-34
2020/12/08 04:31:16;;;;;;;;;;;;;;;-11.61;86.03;102573.98;1865991;76;20503;-36
2020/12/08 04:33:44;;;;;;;;;;;;;;;-11.64;85.94;102584.70;1867023;77;20164;-37
2020/12/08 04:36:16;;;;;;;;;;;;;;;-11.64;85.88;102590.13;1866773;77;20152;-35
2020/12/08 04:38:43;;;;;;;;;;;;;;;-11.70;85.81;102582.45;1867239;77;20132;-36
2020/12/08 04:41:11;;;;;;;;;;;;;;;-11.73;85.80;102586.28;1867258;77;20160;-38
2020/12/08 04:43:40;;;;;;;;;;;;;;;-11.75;85.75;102586.55;1867446;77;20128;-36
2020/12/08 04:46:08;;;;;;;;;;;;;;;-11.77;85.75;102590.19;1867296;77;20172;-36
2020/12/08 04:48:36;;;;;;;;;;;;;;;-11.77;85.71;102576.28;1867275;77;20172;-36
2020/12/08 04:51:05;;;;;;;;;;;;;;;-11.78;85.67;102575.75;1867405;77;20391;-36
2020/12/08 04:53:34;;;;;;;;;;;;;;;-11.76;85.63;102567.05;1867246;76;20247;-36
2020/12/08 04:56:02;;;;;;;;;;;;;;;-11.74;85.53;102570.25;1867307;77;20465;-37
2020/12/08 04:58:30;;;;;;;;;;;;;;;-11.73;85.45;102582.13;1868312;75;20189;-38
2020/12/08 05:00:58;;;;;;;;;;;;;;;-11.72;85.35;102567.48;1855342;77;20249;-40
2020/12/08 05:03:27;;;;;;;;;;;;;;;-11.70;85.24;102568.91;1874246;76;20195;-37
2020/12/08 05:05:55;;;;;;;;;;;;;;;-11.70;85.16;102576.49;1870642;75;20138;-36
2020/12/08 05:08:23;;;;;;;;;;;;;;;-11.71;85.07;102579.39;1870223;75;20134;-37
2020/12/08 05:10:51;;;;;;;;;;;;;;;-11.71;85.00;102577.23;1900110;75;20437;-37
2020/12/08 05:13:27;;;;;;;;;;;;;;;-11.73;84.95;102577.06;1869193;75;20217;-36
2020/12/08 05:16:05;;;;;;;;;;;;;;;-11.73;84.91;102578.70;1869938;75;20209;-38
2020/12/08 05:18:34;;;;;;;;;;;;;;;-11.74;84.86;102580.36;1867421;77;20122;-37
2020/12/08 05:21:12;;;;;;;;;;;;;;;-11.75;84.79;102584.89;1829362;78;20377;-38
2020/12/08 05:23:42;;;;;;;;;;;;;;;-11.75;84.75;102576.44;1821131;78;20137;-37
2020/12/08 05:26:11;;;;;;;;;;;;;;;-11.75;84.67;102581.09;1836362;77;20130;-38
2020/12/08 05:28:39;;;;;;;;;;;;;;;-11.72;84.62;102585.55;1801042;78;20220;-36
2020/12/08 05:31:07;;;;;;;;;;;;;;;-11.71;84.54;102592.03;1810752;78;20145;-39
2020/12/08 05:33:37;;;;;;;;;;;;;;;-11.71;84.50;102587.34;1817427;78;20617;-38
2020/12/08 05:36:06;;;;;;;;;;;;;;;-11.71;84.45;102581.02;1798916;78;20184;-36
2020/12/08 05:38:35;;;;;;;;;;;;;;;-11.71;84.44;102590.77;1828281;77;20190;-39
2020/12/08 05:41:04;;;;;;;;;;;;;;;-11.70;84.40;102600.16;1830702;77;20159;-37
2020/12/08 05:43:41;;;;;;;;;;;;;;;-11.68;84.35;102594.36;1828252;77;20202;-37
2020/12/08 05:46:09;;;;;;;;;;;;;;;-11.67;84.33;102579.31;1834007;77;20202;-39
2020/12/08 05:48:37;;;;;;;;;;;;;;;-11.64;84.27;102585.97;1836057;77;20272;-39
2020/12/08 05:51:07;;;;;;;;;;;;;;;-11.58;84.19;102576.83;1829435;77;20147;-38
2020/12/08 05:53:35;;;;;;;;;;;;;;;-11.54;84.04;102582.34;1836744;77;20188;-43
2020/12/08 05:56:05;;;;;;;;;;;;;;;-11.50;83.90;102588.27;1836177;77;20209;-39
2020/12/08 05:58:34;;;;;;;;;;;;;;;-11.46;83.75;102591.61;1831885;77;20172;-38
2020/12/08 06:01:06;;;;;;;;;;;;;;;-11.41;83.57;102595.86;1838170;77;20205;-39
2020/12/08 06:03:35;;;;;;;;;;;;;;;-11.36;83.41;102583.33;1818856;78;20477;-38
2020/12/08 06:06:07;;;;;;;;;;;;;;;-11.32;83.27;102574.02;1792389;79;20447;-38
2020/12/08 06:08:42;;;;;;;;;;;;;;;-11.27;83.13;102586.76;1808291;78;20222;-38
2020/12/08 06:11:10;;;;;;;;;;;;;;;-11.23;83.00;102580.38;1821655;78;20199;-38
2020/12/08 06:13:46;;;;;;;;;;;;;;;-11.17;82.83;102580.62;1811781;78;20214;-39
2020/12/08 06:16:21;;;;;;;;;;;;;;;-11.12;82.70;102565.52;1809830;78;20488;-38
2020/12/08 06:18:49;;;;;;;;;;;;;;;-11.07;82.50;102590.91;1806673;78;20234;-39
2020/12/08 06:21:25;;;;;;;;;;;;;;;-11.01;82.32;102587.72;1806575;78;20193;-38
2020/12/08 06:26:52;;;;;;;;;;;;;;;-10.84;81.94;102585.97;1894603;74;20526;-39
2020/12/08 06:29:20;;;;;;;;;;;;;;;-10.86;81.80;102573.14;1854131;75;20193;-39
2020/12/08 06:31:49;;;;;;;;;;;;;;;-10.80;81.68;102569.94;1869683;75;20769;-39
2020/12/08 06:34:28;;;;;;;;;;;;;;;-10.74;81.58;102573.44;1838085;75;20197;-39
2020/12/08 06:37:08;;;;;;;;;;;;;;;-10.69;81.45;102570.98;1870878;75;20293;-38
2020/12/08 06:39:36;;;;;;;;;;;;;;;-10.63;81.34;102573.73;1846341;75;20245;-39
2020/12/08 06:42:13;;;;;;;;;;;;;;;-10.57;81.25;102581.07;1868929;75;20194;-38
2020/12/08 06:44:43;;;;;;;;;;;;;;;-10.53;81.16;102561.23;1872712;75;20169;-38
2020/12/08 06:47:11;;;;;;;;;;;;;;;-10.46;81.06;102577.92;1838059;77;20438;-39
2020/12/08 06:49:39;;;;;;;;;;;;;;;-10.39;80.95;102571.81;1869169;75;20296;-39
2020/12/08 06:52:08;;;;;;;;;;;;;;;-10.34;80.88;102586.70;1873622;75;20237;-39
2020/12/08 06:54:39;;;;;;;;;;;;;;;-10.26;80.77;102563.00;1877298;75;20167;-38
2020/12/08 06:57:11;;;;;;;;;;;;;;;-10.18;80.63;102570.97;1839749;77;20364;-39
2020/12/08 06:59:40;;;;;;;;;;;;;;;-10.07;80.44;102584.25;1875243;75;20182;-38
2020/12/08 07:02:10;;;;;;;;;;;;;;;-9.95;80.27;102584.52;1870345;75;20178;-39
2020/12/08 07:04:40;;;;;;;;;;;;;;;-9.86;80.07;102580.70;1871089;75;20416;-39
2020/12/08 07:07:08;;;;;;;;;;;;;;;-9.79;79.86;102588.14;1871011;75;20320;-39
2020/12/08 07:09:36;;;;;;;;;;;;;;;-9.71;79.70;102583.02;1869770;75;20177;-38
2020/12/08 07:12:04;;;;;;;;;;;;;;;-9.55;79.55;102574.31;1867207;75;20172;-38
2020/12/08 07:14:36;;;;;;;;;;;;;;;-9.37;79.31;102582.36;1867118;75;20202;-39
2020/12/08 07:17:01;;;;;;;;;;;;;;;-9.21;78.96;102589.77;1875695;75;20129;-39
2020/12/08 07:19:29;;;;;;;;;;;;;;;-9.08;78.59;102592.30;1875278;75;20428;-38
2020/12/08 07:21:59;;;;;;;;;;;;;;;-8.95;78.09;102597.75;1873512;75;20271;-39
2020/12/08 07:24:26;;;;;;;;;;;;;;;-8.82;77.59;102592.14;1871817;75;20194;-39
2020/12/08 07:26:57;;;;;;;;;;;;;;;-8.72;77.17;102596.02;1870561;75;20164;-39
2020/12/08 07:29:25;;;;;;;;;;;;;;;-8.59;76.76;102577.30;1869301;75;20150;-38
2020/12/08 07:31:52;;;;;;;;;;;;;;;-8.44;76.38;102579.42;1870048;75;20237;-38
2020/12/08 07:34:21;;;;;;;;;;;;;;;-8.29;75.54;102570.21;1871226;75;20185;-39
2020/12/08 07:36:50;;;;;;;;;;;;;;;-8.18;74.89;102574.95;1870378;75;20174;-40
2020/12/08 07:39:19;;;;;;;;;;;;;;;-7.99;74.61;102586.36;1869131;75;20554;-39
2020/12/08 07:41:47;;;;;;;;;;;;;;;-7.76;73.96;102583.81;1867738;75;20129;-39
2020/12/08 07:44:19;;;;;;;;;;;;;;;-7.52;73.28;102589.21;1871534;75;20515;-40
2020/12/08 07:46:49;;;;;;;;;;;;;;;-7.33;72.28;102574.73;1809985;75;20279;-38
2020/12/08 07:49:17;;;;;;;;;;;;;;;-7.18;71.76;102582.78;1868506;75;20170;-39
2020/12/08 07:51:50;;;;;;;;;;;;;;;-6.99;71.06;102570.81;1872505;75;20237;-38
2020/12/08 07:54:20;;;;;;;;;;;;;;;-6.88;69.85;102559.84;1869822;75;20118;-39
2020/12/08 07:56:48;;;;;;;;;;;;;;;-6.83;69.24;102558.59;1868179;75;20295;-39
2020/12/08 07:59:16;;;;;;;;;;;;;;;-6.72;68.92;102550.53;1870882;75;20278;-39
2020/12/08 08:01:46;;;;;;;;;;;;;;;-6.55;68.40;102543.86;1825975;77;20134;-39
2020/12/08 08:04:14;;;;;;;;;;;;;;;-6.40;67.94;102566.80;1870346;75;20138;-38
2020/12/08 08:06:44;;;;;;;;;;;;;;;-6.28;67.28;102556.68;1867623;75;20142;-39
2020/12/08 08:09:13;;;;;;;;;;;;;;;-6.20;66.59;102529.73;1856656;76;20142;-37
2020/12/08 08:11:41;;;;;;;;;;;;;;;-6.15;66.24;102537.37;1875316;75;20185;-39
2020/12/08 08:14:08;;;;;;;;;;;;;;;-6.00;66.08;102546.63;1869359;75;20267;-39
2020/12/08 08:16:36;;;;;;;;;;;;;;;-5.92;65.21;102522.61;1866982;75;20182;-38
2020/12/08 08:19:04;;;;;;;;;;;;;;;-5.92;64.88;102537.92;1870744;75;20253;-38
2020/12/08 08:21:32;;;;;;;;;;;;;;;-5.93;64.34;102533.58;1867329;75;20138;-39
2020/12/08 08:24:01;;;;;;;;;;;;;;;-5.94;64.30;102531.80;1870061;75;20733;-38
2020/12/08 08:26:29;;;;;;;;;;;;;;;-5.91;64.18;102531.16;1868152;75;20781;-39
2020/12/08 08:28:57;;;;;;;;;;;;;;;-5.88;64.09;102530.11;1868453;75;20130;-38
2020/12/08 08:31:24;;;;;;;;;;;;;;;-5.74;64.11;102518.89;1871319;75;20275;-39
2020/12/08 08:33:52;;;;;;;;;;;;;;;-5.55;64.02;102518.64;1870386;75;20198;-39
2020/12/08 08:36:20;;;;;;;;;;;;;;;-5.35;63.74;102517.61;1866946;75;20275;-38
2020/12/08 08:38:48;;;;;;;;;;;;;;;-5.24;63.20;102507.41;1877831;75;20142;-39
2020/12/08 08:41:16;;;;;;;;;;;;;;;-5.28;62.54;102512.19;1871268;75;20146;-39
2020/12/08 08:43:44;;;;;;;;;;;;;;;-5.34;62.30;102508.79;1867755;75;20182;-39
2020/12/08 08:46:13;;;;;;;;;;;;;;;-5.33;61.92;102504.19;1867923;75;20292;-45
2020/12/08 08:48:41;;;;;;;;;;;;;;;-5.34;61.48;102495.11;1869376;75;20215;-38
2020/12/08 08:51:09;;;;;;;;;;;;;;;-5.35;61.35;102511.22;1867173;75;20225;-45
2020/12/08 08:53:37;;;;;;;;;;;;;;;-5.29;61.66;102501.46;1867356;75;20189;-39
2020/12/08 08:56:05;;;;;;;;;;;;;;;-5.22;61.37;102499.88;1869361;75;20168;-39
2020/12/08 08:58:33;;;;;;;;;;;;;;;-5.20;61.11;102492.33;1868364;75;20135;-39
2020/12/08 09:01:01;;;;;;;;;;;;;;;-5.20;60.82;102485.55;1869679;75;20293;-38
2020/12/08 09:03:29;;;;;;;;;;;;;;;-5.16;60.75;102486.66;1867111;75;20170;-38
2020/12/08 09:05:57;;;;;;;;;;;;;;;-5.04;60.53;102482.06;1865790;75;20262;-39
2020/12/08 09:08:24;;;;;;;;;;;;;;;-4.90;60.36;102478.86;1867185;75;20186;-38
2020/12/08 09:10:52;;;;;;;;;;;;;;;-4.80;60.15;102482.11;1866294;75;20205;-39
2020/12/08 09:13:21;;;;;;;;;;;;;;;-4.69;60.30;102473.16;1871866;75;20162;-39
2020/12/08 09:15:50;;;;;;;;;;;;;;;-4.63;59.77;102468.48;1871765;75;20198;-39
2020/12/08 09:18:17;;;;;;;;;;;;;;;-4.62;59.45;102460.03;1870341;75;20128;-39
2020/12/08 09:20:46;;;;;;;;;;;;;;;-4.57;59.18;102456.13;1868016;75;20175;-39
2020/12/08 09:23:14;;;;;;;;;;;;;;;-4.56;58.93;102459.19;1871378;75;20160;-39
2020/12/08 09:25:42;;;;;;;;;;;;;;;-4.53;59.08;102450.86;1879940;75;20138;-39
2020/12/08 09:28:09;;;;;;;;;;;;;;;-4.43;59.25;102449.05;1868105;75;20136;-38
2020/12/08 09:30:38;;;;;;;;;;;;;;;-4.42;58.87;102435.48;1875930;75;20190;-39
2020/12/08 09:33:07;;;;;;;;;;;;;;;-4.46;58.77;102447.54;1846319;75;20121;-39
2020/12/08 09:35:35;;;;;;;;;;;;;;;-4.38;58.41;102452.31;1874493;75;20290;-39
2020/12/08 09:38:07;;;;;;;;;;;;;;;-4.30;58.38;102438.40;1868559;75;20200;-39
2020/12/08 09:40:41;;;;;;;;;;;;;;;-4.21;58.41;102451.86;1853728;76;20479;-41
2020/12/08 09:43:09;;;;;;;;;;;;;;;-4.16;58.27;102433.86;1879667;75;20203;-39
2020/12/08 09:45:38;;;;;;;;;;;;;;;-4.17;58.03;102446.16;1841909;75;20210;-38
2020/12/08 09:48:08;;;;;;;;;;;;;;;-4.12;57.55;102436.73;1871303;75;20479;-38
2020/12/08 09:50:36;;;;;;;;;;;;;;;-4.12;57.09;102439.69;1871355;75;20118;-38
2020/12/08 09:53:04;;;;;;;;;;;;;;;-4.10;57.12;102424.94;1869732;75;20190;-38
2020/12/08 09:55:32;;;;;;;;;;;;;;;-3.98;57.09;102432.58;1866290;75;20400;-38
2020/12/08 09:58:00;;;;;;;;;;;;;;;-3.90;57.11;102430.55;1867641;75;20475;-39
2020/12/08 10:00:28;;;;;;;;;;;;;;;-3.85;57.09;102432.64;1875163;75;20445;-41
2020/12/08 10:02:57;;;;;;;;;;;;;;;-3.83;56.62;102420.84;1872983;75;20201;-40
2020/12/08 10:05:26;;;;;;;;;;;;;;;-3.81;56.59;102429.53;1866557;75;20235;-45
2020/12/08 10:07:56;;;;;;;;;;;;;;;-3.73;56.56;102428.35;1870331;75;20185;-39
2020/12/08 10:10:25;;;;;;;;;;;;;;;-3.60;56.08;102422.38;1836901;75;20183;-39
2020/12/08 10:12:52;;;;;;;;;;;;;;;-3.52;55.93;102426.36;1868593;75;20169;-38
2020/12/08 10:15:20;;;;;;;;;;;;;;;-3.45;55.85;102416.13;1868601;75;20212;-39
2020/12/08 10:17:48;;;;;;;;;;;;;;;-3.42;55.83;102416.34;1872005;75;20221;-38
2020/12/08 10:20:16;;;;;;;;;;;;;;;-3.36;55.85;102411.62;1870952;75;20324;-38
2020/12/08 10:22:44;;;;;;;;;;;;;;;-3.27;55.74;102416.06;1871909;75;20189;-40
2020/12/08 10:26:50;;;;;;;;;;;;;;;-3.02;55.74;102408.33;1898616;74;20862;-39
2020/12/08 10:29:19;;;;;;;;;;;;;;;-2.92;55.44;102413.25;1859330;75;20445;-39
2020/12/08 10:31:48;;;;;;;;;;;;;;;-2.84;55.30;102402.71;1869424;75;20281;-38
2020/12/08 10:34:17;;;;;;;;;;;;;;;-2.75;55.06;102405.34;1873388;75;21037;-39
2020/12/08 10:36:46;;;;;;;;;;;;;;;-2.78;54.93;102385.53;1884172;75;20195;-38
2020/12/08 10:39:14;;;;;;;;;;;;;;;-2.82;54.89;102395.08;1868605;75;20179;-38
2020/12/08 10:41:42;;;;;;;;;;;;;;;-2.83;54.98;102378.83;1872531;75;20193;-39
2020/12/08 10:44:10;;;;;;;;;;;;;;;-2.83;54.88;102366.00;1877961;75;20298;-39
2020/12/08 10:46:38;;;;;;;;;;;;;;;-2.83;54.91;102365.11;1867518;75;20284;-39
2020/12/08 10:49:07;;;;;;;;;;;;;;;-2.79;54.95;102378.61;1871725;75;20507;-40
2020/12/08 10:51:35;;;;;;;;;;;;;;;-2.73;54.72;102366.17;1868487;75;20217;-42
2020/12/08 10:54:02;;;;;;;;;;;;;;;-2.72;54.69;102365.78;1869044;75;20455;-42
2020/12/08 10:56:31;;;;;;;;;;;;;;;-2.64;54.49;102370.61;1871601;75;20172;-39
2020/12/08 10:58:59;;;;;;;;;;;;;;;-2.54;54.29;102351.52;1874685;75;20257;-38
2020/12/08 11:01:27;;;;;;;;;;;;;;;-2.46;54.26;102372.16;1878983;75;20202;-39
2020/12/08 11:03:56;;;;;;;;;;;;;;;-2.33;54.24;102368.66;1872099;75;20299;-39
2020/12/08 11:06:25;;;;;;;;;;;;;;;-2.16;53.83;102366.72;1875831;75;20917;-39
2020/12/08 11:08:54;;;;;;;;;;;;;;;-2.11;53.41;102343.52;1872284;75;20253;-42
2020/12/08 11:11:25;;;;;;;;;;;;;;;-2.09;53.16;102348.32;1876076;75;20308;-42
2020/12/08 11:13:54;;;;;;;;;;;;;;;-2.10;52.73;102353.00;1814328;78;20192;-42
2020/12/08 11:16:23;;;;;;;;;;;;;;;-2.13;52.71;102353.69;1804682;79;20155;-38
2020/12/08 11:18:51;;;;;;;;;;;;;;;-2.09;52.90;102350.89;1824797;77;20194;-39
2020/12/08 11:21:25;;;;;;;;;;;;;;;-1.99;52.79;102342.95;1810751;77;20123;-39
2020/12/08 11:23:55;;;;;;;;;;;;;;;-1.89;52.77;102343.98;1745610;78;21002;-40
2020/12/08 11:26:23;;;;;;;;;;;;;;;-1.73;52.43;102342.83;1828964;78;20239;-38
2020/12/08 11:28:52;;;;;;;;;;;;;;;-1.67;52.05;102323.02;1831801;78;20149;-37
2020/12/08 11:31:20;;;;;;;;;;;;;;;-1.76;51.70;102336.60;1816747;78;20455;-39
2020/12/08 11:33:48;;;;;;;;;;;;;;;-1.86;51.90;102337.76;1815742;78;20141;-40
2020/12/08 11:36:15;;;;;;;;;;;;;;;-1.84;51.81;102328.86;1817956;78;20298;-39
2020/12/08 11:38:43;;;;;;;;;;;;;;;-1.81;51.73;102338.02;1817277;78;20188;-39
2020/12/08 11:41:12;;;;;;;;;;;;;;;-1.79;51.96;102343.75;1815821;78;20449;-42
2020/12/08 11:43:42;;;;;;;;;;;;;;;-1.75;51.98;102344.41;1813681;78;20196;-39
2020/12/08 11:46:23;;;;;;;;;;;;;;;-1.74;51.77;102338.48;1814568;78;20271;-39
2020/12/08 11:48:59;;;;;;;;;;;;;;;-1.77;51.31;102332.28;1755568;79;20266;-38
2020/12/08 11:51:32;;;;;;;;;;;;;;;-1.83;51.25;102339.20;1812939;78;20241;-42
2020/12/08 11:53:58;;;;;;;;;;;;;;;-1.77;51.01;102326.71;1822040;78;20164;-42
2020/12/08 11:56:26;;;;;;;;;;;;;;;-1.70;50.87;102326.67;1817474;78;20307;-42
2020/12/08 11:58:56;;;;;;;;;;;;;;;-1.66;50.74;102316.69;1818100;78;20196;-41
2020/12/08 12:01:29;;;;;;;;;;;;;;;-1.71;50.68;102320.64;1810832;78;20831;-41
2020/12/08 12:04:04;;;;;;;;;;;;;;;-1.80;50.78;102313.70;1778312;78;20138;-44
2020/12/08 12:06:38;;;;;;;;;;;;;;;-1.87;50.70;102320.95;1760978;78;20190;-42
2020/12/08 12:09:13;;;;;;;;;;;;;;;-1.92;50.60;102306.55;1768888;78;20217;-42
2020/12/08 12:11:42;;;;;;;;;;;;;;;-1.93;50.85;102314.16;1819284;78;20331;-42
2020/12/08 12:14:11;;;;;;;;;;;;;;;-1.92;50.95;102315.55;1771197;78;20203;-42
2020/12/08 12:16:40;;;;;;;;;;;;;;;-1.92;51.05;102315.95;1811925;78;20247;-42
2020/12/08 12:19:10;;;;;;;;;;;;;;;-1.93;51.17;102316.73;1824503;77;20195;-42
2020/12/08 12:21:42;;;;;;;;;;;;;;;-2.00;51.02;102307.77;1828244;77;20190;-41
2020/12/08 12:24:11;;;;;;;;;;;;;;;-2.09;50.94;102317.09;1807417;77;20198;-41
2020/12/08 12:26:44;;;;;;;;;;;;;;;-2.14;50.82;102305.66;1812348;77;20208;-41
2020/12/08 12:29:17;;;;;;;;;;;;;;;-2.17;50.80;102319.62;1765239;78;20289;-42
2020/12/08 12:31:51;;;;;;;;;;;;;;;-2.18;50.82;102318.23;1793633;78;20578;-42
2020/12/08 12:34:19;;;;;;;;;;;;;;;-2.21;51.03;102328.31;1819301;78;20192;-42
2020/12/08 12:36:50;;;;;;;;;;;;;;;-2.25;51.32;102327.66;1779622;78;20299;-42
2020/12/08 12:39:20;;;;;;;;;;;;;;;-2.28;51.60;102315.89;1832371;77;20232;-41
2020/12/08 12:41:49;;;;;;;;;;;;;;;-2.32;51.84;102324.22;1832148;77;20195;-41
2020/12/08 12:44:24;;;;;;;;;;;;;;;-2.38;52.07;102327.30;1834164;77;20220;-42
2020/12/08 12:46:54;;;;;;;;;;;;;;;-2.44;52.26;102328.21;1804918;77;20444;-41